Time;durP1;ratioP1;P1;durP2;ratioP2;P2;SDS_P1;SDS_P2;PMS_P1;PMS_P2;Temp;Humidity;BMP_temperature;BMP_pressure;BME280_temperature;BME280_humidity;BME280_pressure;Samples;Min_cycle;Max_cycle;Signal;HPM_P1;HPM_P2
2022/10/21 00:00:49;;;;;;;0.00;0.00;;;10.60;99.90;;;;;;5022357;28;20492;-75
2022/10/21 00:03:17;;;;;;;0.00;0.00;;;10.70;99.90;;;;;;5021537;28;20499;-75
2022/10/21 00:05:45;;;;;;;0.00;0.00;;;10.70;99.90;;;;;;5022600;28;20450;-74
2022/10/21 00:08:14;;;;;;;0.00;0.00;;;10.80;99.90;;;;;;5019628;28;20449;-75
2022/10/21 00:10:42;;;;;;;0.00;0.00;;;10.80;99.90;;;;;;5017474;28;20883;-75
2022/10/21 00:13:10;;;;;;;0.00;0.00;;;10.90;99.90;;;;;;5020486;28;20481;-75
2022/10/21 00:15:38;;;;;;;0.00;0.00;;;11.00;99.90;;;;;;5024885;28;20932;-75
2022/10/21 00:18:06;;;;;;;0.00;0.00;;;10.90;99.90;;;;;;5023025;28;20446;-73
2022/10/21 00:20:33;;;;;;;0.00;0.00;;;10.90;99.90;;;;;;5022194;28;20539;-74
2022/10/21 00:23:06;;;;;;;0.00;0.00;;;10.90;99.90;;;;;;5022132;28;20449;-74
2022/10/21 00:25:35;;;;;;;0.00;0.00;;;10.80;99.90;;;;;;5016976;28;20473;-74
2022/10/21 00:28:03;;;;;;;0.00;0.00;;;10.80;99.90;;;;;;5022326;28;20458;-73
2022/10/21 00:30:30;;;;;;;0.00;0.00;;;10.80;99.90;;;;;;5017820;28;20905;-73
2022/10/21 00:32:58;;;;;;;0.00;0.00;;;10.80;99.90;;;;;;5019986;28;20442;-73
2022/10/21 00:35:33;;;;;;;0.00;0.00;;;10.70;99.90;;;;;;5020504;28;20472;-73
2022/10/21 00:38:01;;;;;;;0.00;0.00;;;10.70;99.90;;;;;;5023103;28;20496;-73
2022/10/21 00:40:28;;;;;;;0.00;0.00;;;10.70;99.90;;;;;;5015901;28;20550;-73
2022/10/21 00:42:58;;;;;;;0.00;0.00;;;10.70;99.90;;;;;;5018675;28;20511;-73
2022/10/21 00:45:29;;;;;;;0.00;0.00;;;10.70;99.90;;;;;;5021097;28;20445;-73
2022/10/21 00:48:02;;;;;;;0.00;0.00;;;10.70;99.90;;;;;;5020493;28;20440;-73
2022/10/21 00:50:33;;;;;;;0.00;0.00;;;10.80;99.90;;;;;;5021885;28;20890;-73
2022/10/21 00:53:10;;;;;;;0.00;0.00;;;10.80;99.90;;;;;;5021232;28;20467;-74
2022/10/21 00:55:43;;;;;;;0.00;0.00;;;10.80;99.90;;;;;;5019784;28;20481;-73
2022/10/21 00:58:12;;;;;;;0.00;0.00;;;10.90;99.90;;;;;;5022091;28;20841;-73
2022/10/21 01:00:40;;;;;;;0.00;0.00;;;10.90;99.90;;;;;;5023555;28;20485;-73
2022/10/21 01:03:11;;;;;;;0.00;0.00;;;10.90;99.90;;;;;;5022114;28;20442;-73
2022/10/21 01:05:40;;;;;;;0.00;0.00;;;11.00;99.90;;;;;;5025217;28;20468;-73
2022/10/21 01:08:08;;;;;;;0.00;0.00;;;11.00;99.90;;;;;;5022445;28;20442;-73
2022/10/21 01:10:37;;;;;;;0.00;0.00;;;11.10;99.90;;;;;;5021794;28;20506;-73
2022/10/21 01:13:21;;;;;;;0.00;0.00;;;11.10;99.90;;;;;;5021610;28;20857;-75
2022/10/21 01:15:56;;;;;;;0.00;0.00;;;11.10;99.90;;;;;;5021280;28;20453;-73
2022/10/21 01:18:30;;;;;;;0.00;0.00;;;11.10;99.90;;;;;;5021884;28;20484;-73
2022/10/21 01:21:15;;;;;;;0.00;0.00;;;11.20;99.90;;;;;;5023271;28;20541;-80
2022/10/21 01:24:29;;;;;;;0.00;0.00;;;11.20;99.90;;;;;;5017457;28;20445;-73
2022/10/21 01:27:21;;;;;;;0.00;0.00;;;11.30;99.90;;;;;;5026897;28;20438;-72
2022/10/21 01:30:16;;;;;;;0.00;0.00;;;11.40;99.90;;;;;;5032753;28;20500;-72
2022/10/21 01:32:59;;;;;;;0.00;0.00;;;11.40;99.90;;;;;;5021981;28;20433;-72
2022/10/21 01:35:34;;;;;;;0.00;0.00;;;11.40;99.90;;;;;;5021639;28;20473;-72
2022/10/21 01:38:09;;;;;;;0.00;0.00;;;11.50;99.90;;;;;;5021329;28;20446;-72
2022/10/21 01:40:44;;;;;;;0.00;0.00;;;11.50;99.90;;;;;;5018394;28;20477;-72
2022/10/21 01:43:20;;;;;;;0.00;0.00;;;11.50;99.90;;;;;;5021414;28;20514;-72
2022/10/21 01:45:53;;;;;;;0.00;0.00;;;11.50;99.90;;;;;;5023135;28;20925;-72
2022/10/21 01:48:27;;;;;;;0.00;0.00;;;11.40;99.90;;;;;;5020520;28;20457;-73
2022/10/21 01:50:58;;;;;;;0.00;0.00;;;11.30;99.90;;;;;;5022803;28;20470;-73
2022/10/21 01:53:28;;;;;;;0.00;0.00;;;11.30;99.90;;;;;;5018915;28;20430;-73
2022/10/21 01:55:58;;;;;;;0.00;0.00;;;11.30;99.90;;;;;;5020520;28;20817;-73
2022/10/21 01:58:30;;;;;;;0.00;0.00;;;11.30;99.90;;;;;;5018615;28;20519;-73
2022/10/21 02:01:00;;;;;;;0.00;0.00;;;11.20;99.90;;;;;;5019510;28;20490;-73
2022/10/21 02:03:34;;;;;;;0.00;0.00;;;11.20;99.90;;;;;;5021170;28;20523;-73
2022/10/21 02:06:02;;;;;;;0.00;0.00;;;11.20;99.90;;;;;;5017206;28;20574;-73
2022/10/21 02:08:30;;;;;;;0.00;0.00;;;11.10;99.90;;;;;;5015435;28;20457;-73
2022/10/21 02:11:01;;;;;;;0.00;0.00;;;11.10;99.90;;;;;;5022103;28;20449;-74
2022/10/21 02:13:34;;;;;;;0.00;0.00;;;11.10;99.90;;;;;;5020217;28;20446;-74
2022/10/21 02:18:44;;;;;;;0.00;0.00;;;11.10;99.90;;;;;;5455134;22;20477;-87
2022/10/21 02:21:18;;;;;;;0.00;0.00;;;11.10;99.90;;;;;;5025866;28;20585;-86
2022/10/21 02:23:52;;;;;;;0.00;0.00;;;11.00;99.90;;;;;;5022082;28;20477;-86
2022/10/21 02:26:20;;;;;;;0.00;0.00;;;11.00;99.90;;;;;;5019187;28;20464;-86
2022/10/21 02:28:49;;;;;;;0.00;0.00;;;10.90;99.90;;;;;;5018371;28;20477;-86
2022/10/21 02:31:37;;;;;;;0.00;0.00;;;10.90;99.90;;;;;;5025397;28;20469;-86
2022/10/21 02:34:16;;;;;;;0.00;0.00;;;10.90;99.90;;;;;;5021068;28;20461;-85
2022/10/21 02:36:52;;;;;;;0.00;0.00;;;10.80;99.90;;;;;;5025554;28;20449;-86
2022/10/21 02:39:26;;;;;;;0.00;0.00;;;10.80;99.90;;;;;;5023585;28;20477;-86
2022/10/21 02:41:57;;;;;;;0.00;0.00;;;10.70;99.90;;;;;;5018230;28;20481;-86
2022/10/21 02:44:25;;;;;;;0.00;0.00;;;10.60;99.90;;;;;;5018510;28;20459;-86
2022/10/21 02:46:53;;;;;;;0.00;0.00;;;10.60;99.90;;;;;;5026384;28;21049;-86
2022/10/21 02:49:22;;;;;;;0.00;0.00;;;10.60;99.90;;;;;;5030040;28;20968;-86
2022/10/21 02:51:53;;;;;;;0.00;0.00;;;10.50;99.90;;;;;;5028667;28;21034;-86
2022/10/21 02:54:21;;;;;;;0.00;0.00;;;10.60;99.90;;;;;;5029617;28;20437;-86
2022/10/21 02:56:49;;;;;;;0.00;0.00;;;10.50;99.90;;;;;;5028353;28;20507;-86
2022/10/21 02:59:16;;;;;;;0.00;0.00;;;10.50;99.90;;;;;;5017467;28;20485;-86
2022/10/21 03:01:44;;;;;;;0.00;0.00;;;10.50;99.90;;;;;;5027591;28;20485;-86
2022/10/21 03:04:12;;;;;;;0.00;0.00;;;10.50;99.90;;;;;;5026154;28;20441;-86
2022/10/21 03:06:41;;;;;;;0.00;0.00;;;10.50;99.90;;;;;;5017680;28;20522;-86
2022/10/21 03:09:09;;;;;;;0.00;0.00;;;10.50;99.90;;;;;;5023520;28;21041;-86
2022/10/21 03:11:37;;;;;;;0.00;0.00;;;10.50;99.90;;;;;;5027124;28;20454;-86
2022/10/21 03:14:04;;;;;;;0.00;0.00;;;10.50;99.90;;;;;;5029301;28;20472;-86
2022/10/21 03:16:32;;;;;;;0.00;0.00;;;10.50;99.90;;;;;;5029201;28;20446;-86
2022/10/21 03:19:00;;;;;;;0.00;0.00;;;10.60;99.90;;;;;;5016547;28;20223;-86
2022/10/21 03:21:28;;;;;;;0.00;0.00;;;10.60;99.90;;;;;;5017612;28;20488;-86
2022/10/21 03:23:57;;;;;;;0.00;0.00;;;10.70;99.90;;;;;;5027038;28;20457;-86
2022/10/21 03:26:25;;;;;;;0.00;0.00;;;10.70;99.90;;;;;;5021711;28;20474;-86
2022/10/21 03:28:53;;;;;;;0.00;0.00;;;10.80;99.90;;;;;;5020556;28;20523;-85
2022/10/21 03:31:20;;;;;;;0.00;0.00;;;10.80;99.90;;;;;;5028045;28;20484;-85
2022/10/21 03:33:48;;;;;;;0.00;0.00;;;10.80;99.90;;;;;;5020981;28;20442;-85
2022/10/21 03:36:16;;;;;;;0.00;0.00;;;10.80;99.90;;;;;;5021722;28;20450;-86
2022/10/21 03:38:44;;;;;;;0.00;0.00;;;10.80;99.90;;;;;;5026003;28;20487;-86
2022/10/21 03:41:14;;;;;;;0.00;0.00;;;10.80;99.90;;;;;;5026441;28;20455;-88
2022/10/21 03:44:12;;;;;;;0.00;0.00;;;10.80;99.90;;;;;;5001995;28;20450;-90
2022/10/21 04:00:57;;;;;;;0.00;0.00;;;10.60;99.90;;;;;;4984295;28;20486;-83
2022/10/21 04:03:24;;;;;;;0.00;0.00;;;10.60;99.90;;;;;;4989367;28;20243;-82
2022/10/21 04:05:52;;;;;;;0.00;0.00;;;10.60;99.90;;;;;;4987327;28;20451;-83
2022/10/21 04:08:20;;;;;;;0.00;0.00;;;10.60;99.90;;;;;;4989469;28;20442;-83
2022/10/21 04:10:48;;;;;;;0.00;0.00;;;10.60;99.90;;;;;;4988860;28;20471;-82
2022/10/21 04:13:15;;;;;;;0.00;0.00;;;10.60;99.90;;;;;;4986115;28;20444;-82
2022/10/21 04:15:44;;;;;;;0.00;0.00;;;10.60;99.90;;;;;;4986958;28;20443;-83
2022/10/21 04:18:13;;;;;;;0.00;0.00;;;10.60;99.90;;;;;;4985291;28;20461;-83
2022/10/21 04:20:41;;;;;;;0.00;0.00;;;10.60;99.90;;;;;;4986516;28;21060;-83
2022/10/21 04:23:09;;;;;;;0.00;0.00;;;10.60;99.90;;;;;;4986429;28;20912;-83
2022/10/21 04:25:37;;;;;;;0.00;0.00;;;10.60;99.90;;;;;;4984942;28;20974;-83
2022/10/21 04:28:05;;;;;;;0.00;0.00;;;10.60;99.90;;;;;;4988774;28;20482;-84
2022/10/21 04:30:32;;;;;;;0.00;0.00;;;10.60;99.90;;;;;;4991034;28;20464;-83
2022/10/21 04:33:00;;;;;;;0.00;0.00;;;10.60;99.90;;;;;;4986024;28;20254;-83
2022/10/21 04:35:29;;;;;;;0.00;0.00;;;10.60;99.90;;;;;;4987287;28;20444;-83
2022/10/21 04:37:59;;;;;;;0.00;0.00;;;10.60;99.90;;;;;;4986135;28;20923;-80
2022/10/21 04:40:27;;;;;;;0.00;0.00;;;10.60;99.90;;;;;;4986308;28;20975;-80
2022/10/21 04:42:55;;;;;;;0.00;0.00;;;10.60;99.90;;;;;;4989473;28;20475;-79
2022/10/21 04:45:22;;;;;;;0.00;0.00;;;10.60;99.90;;;;;;4987795;28;20453;-80
2022/10/21 04:47:50;;;;;;;0.00;0.00;;;10.60;99.90;;;;;;4984013;28;20479;-80
2022/10/21 04:50:18;;;;;;;0.00;0.00;;;10.60;99.90;;;;;;4986018;28;21007;-80
2022/10/21 04:52:47;;;;;;;0.00;0.00;;;10.50;99.90;;;;;;4985413;28;20447;-80
2022/10/21 04:55:15;;;;;;;0.00;0.00;;;10.50;99.90;;;;;;4986225;28;20462;-79
2022/10/21 04:57:43;;;;;;;0.00;0.00;;;10.50;99.90;;;;;;4985940;28;20208;-79
2022/10/21 05:00:12;;;;;;;0.00;0.00;;;10.50;99.90;;;;;;4982607;28;20486;-79
2022/10/21 05:02:39;;;;;;;0.00;0.00;;;10.50;99.90;;;;;;4985374;28;20488;-80
2022/10/21 05:05:09;;;;;;;0.00;0.00;;;10.50;99.90;;;;;;4984757;28;20452;-80
2022/10/21 05:07:36;;;;;;;0.00;0.00;;;10.50;99.90;;;;;;4984781;28;20467;-80
2022/10/21 05:10:06;;;;;;;0.00;0.00;;;10.50;99.90;;;;;;4987231;28;20941;-84
2022/10/21 05:12:34;;;;;;;0.00;0.00;;;10.50;99.90;;;;;;4992501;28;20431;-84
2022/10/21 05:15:02;;;;;;;0.00;0.00;;;10.50;99.90;;;;;;4992025;28;20455;-84
2022/10/21 05:17:29;;;;;;;0.00;0.00;;;10.50;99.90;;;;;;4997885;28;20471;-83
2022/10/21 05:19:57;;;;;;;0.00;0.00;;;10.50;99.90;;;;;;4994557;28;20714;-85
2022/10/21 05:22:25;;;;;;;0.00;0.00;;;10.50;99.90;;;;;;4988671;28;20886;-74
2022/10/21 05:24:53;;;;;;;0.00;0.00;;;10.40;99.90;;;;;;4980585;28;20618;-74
2022/10/21 05:27:22;;;;;;;0.00;0.00;;;10.40;99.90;;;;;;4981358;28;20498;-74
2022/10/21 05:29:50;;;;;;;0.00;0.00;;;10.30;99.90;;;;;;4981940;28;20494;-74
2022/10/21 05:32:17;;;;;;;0.00;0.00;;;10.30;99.90;;;;;;4981815;28;20266;-74
2022/10/21 05:34:45;;;;;;;0.00;0.00;;;10.20;99.90;;;;;;4982640;28;20211;-74
2022/10/21 05:37:13;;;;;;;0.00;0.00;;;10.20;99.90;;;;;;4983536;28;20211;-73
2022/10/21 05:39:40;;;;;;;0.00;0.00;;;10.20;99.90;;;;;;4981447;28;20458;-73
2022/10/21 05:42:08;;;;;;;0.00;0.00;;;10.20;99.90;;;;;;4980606;28;20479;-76
2022/10/21 05:44:37;;;;;;;0.00;0.00;;;10.20;99.90;;;;;;4984401;28;20282;-73
2022/10/21 05:47:05;;;;;;;0.00;0.00;;;10.10;99.90;;;;;;4989473;28;21125;-74
2022/10/21 05:49:32;;;;;;;0.00;0.00;;;10.20;99.90;;;;;;4997659;28;20266;-74
2022/10/21 05:52:01;;;;;;;0.00;0.00;;;10.20;99.90;;;;;;4982361;28;20875;-74
2022/10/21 05:54:28;;;;;;;0.00;0.00;;;10.20;99.90;;;;;;4983436;28;20537;-74
2022/10/21 05:56:56;;;;;;;0.00;0.00;;;10.30;99.90;;;;;;4981384;28;20512;-73
2022/10/21 05:59:25;;;;;;;0.00;0.00;;;10.40;99.90;;;;;;4979585;28;20219;-73
2022/10/21 06:01:54;;;;;;;0.00;0.00;;;10.50;99.90;;;;;;4981466;28;21335;-73
2022/10/21 06:04:22;;;;;;;0.00;0.00;;;10.60;99.90;;;;;;4979552;28;20533;-74
2022/10/21 06:06:50;;;;;;;0.00;0.00;;;10.60;99.90;;;;;;4980799;28;20570;-74
2022/10/21 06:09:17;;;;;;;0.00;0.00;;;10.70;99.90;;;;;;4981568;28;20456;-74
2022/10/21 06:11:45;;;;;;;0.00;0.00;;;10.70;99.90;;;;;;4976325;28;20981;-74
2022/10/21 06:14:13;;;;;;;0.00;0.00;;;10.80;99.90;;;;;;4979290;28;20443;-74
2022/10/21 06:16:41;;;;;;;0.00;0.00;;;10.80;99.90;;;;;;4981481;28;20864;-74
2022/10/21 06:19:10;;;;;;;0.00;0.00;;;10.80;99.90;;;;;;4980612;28;20477;-74
2022/10/21 06:21:37;;;;;;;0.00;0.00;;;10.80;99.90;;;;;;4982849;28;20479;-74
2022/10/21 06:24:05;;;;;;;0.00;0.00;;;10.90;99.90;;;;;;4981079;28;20480;-73
2022/10/21 06:26:33;;;;;;;0.00;0.00;;;10.90;99.90;;;;;;4981690;28;20440;-73
2022/10/21 06:29:03;;;;;;;0.00;0.00;;;11.00;99.90;;;;;;4981829;28;20478;-74
2022/10/21 06:31:31;;;;;;;0.00;0.00;;;11.00;99.90;;;;;;4980709;28;20493;-73
2022/10/21 06:33:59;;;;;;;0.00;0.00;;;11.00;99.90;;;;;;4981500;28;20444;-74
2022/10/21 06:36:28;;;;;;;0.00;0.00;;;11.00;99.90;;;;;;4981638;28;20451;-73
2022/10/21 06:38:56;;;;;;;0.00;0.00;;;11.00;99.90;;;;;;4980596;28;20863;-73
2022/10/21 06:41:23;;;;;;;0.00;0.00;;;11.10;99.90;;;;;;4983443;28;20459;-74
2022/10/21 06:43:51;;;;;;;0.00;0.00;;;11.10;99.90;;;;;;4981531;28;20834;-74
2022/10/21 06:46:19;;;;;;;0.00;0.00;;;11.10;99.90;;;;;;4978792;28;20431;-74
2022/10/21 06:48:47;;;;;;;0.00;0.00;;;11.10;99.90;;;;;;4978282;28;20533;-74
2022/10/21 06:51:18;;;;;;;0.00;0.00;;;11.20;99.90;;;;;;4978538;28;20479;-74
2022/10/21 06:53:52;;;;;;;0.00;0.00;;;11.20;99.90;;;;;;4977082;28;20931;-71
2022/10/21 06:56:21;;;;;;;0.00;0.00;;;11.20;99.90;;;;;;4977400;28;20863;-74
2022/10/21 06:58:50;;;;;;;0.00;0.00;;;11.30;99.90;;;;;;4975181;28;20530;-73
2022/10/21 07:01:20;;;;;;;0.00;0.00;;;11.40;99.90;;;;;;4978545;28;20513;-82
2022/10/21 07:04:02;;;;;;;0.00;0.00;;;11.50;99.90;;;;;;4981963;28;20503;-83
2022/10/21 07:06:30;;;;;;;0.00;0.00;;;11.60;99.90;;;;;;4978049;28;20523;-83
2022/10/21 07:08:59;;;;;;;0.00;0.00;;;11.70;99.90;;;;;;4983843;28;20451;-82
2022/10/21 07:11:27;;;;;;;0.00;0.00;;;11.70;99.90;;;;;;4987157;28;20475;-82
2022/10/21 07:13:56;;;;;;;0.00;0.00;;;11.80;99.90;;;;;;4988549;28;20445;-82
2022/10/21 07:16:25;;;;;;;0.00;0.00;;;11.90;99.90;;;;;;4984699;28;20491;-82
2022/10/21 07:18:54;;;;;;;0.00;0.00;;;12.00;99.90;;;;;;4983684;28;20439;-83
2022/10/21 07:21:25;;;;;;;0.00;0.00;;;12.00;99.90;;;;;;4966724;28;20518;-83
2022/10/21 07:23:54;;;;;;;0.00;0.00;;;12.00;99.90;;;;;;4985254;28;20886;-82
2022/10/21 07:26:29;;;;;;;0.00;0.00;;;12.00;99.90;;;;;;4984900;28;20915;-82
2022/10/21 07:28:59;;;;;;;0.00;0.00;;;12.10;99.90;;;;;;4988316;28;20459;-82
2022/10/21 07:31:30;;;;;;;0.00;0.00;;;12.10;99.90;;;;;;4982496;28;20486;-82
2022/10/21 07:33:59;;;;;;;0.00;0.00;;;12.10;99.90;;;;;;4985740;28;20447;-82
2022/10/21 07:36:29;;;;;;;0.00;0.00;;;12.10;99.90;;;;;;4987541;28;20453;-83
2022/10/21 07:38:59;;;;;;;0.00;0.00;;;12.20;99.90;;;;;;4980684;28;20442;-83
2022/10/21 07:41:30;;;;;;;0.00;0.00;;;12.30;99.90;;;;;;4980581;28;20570;-83
2022/10/21 07:43:58;;;;;;;0.00;0.00;;;12.30;99.90;;;;;;4983913;28;20487;-82
2022/10/21 07:46:26;;;;;;;0.00;0.00;;;12.40;99.90;;;;;;4982054;28;20989;-83
2022/10/21 07:48:55;;;;;;;0.00;0.00;;;12.40;99.90;;;;;;4980764;28;20436;-83
2022/10/21 07:51:25;;;;;;;0.00;0.00;;;12.40;99.90;;;;;;4982927;28;20486;-82
2022/10/21 07:53:59;;;;;;;0.00;0.00;;;12.40;99.90;;;;;;4981516;28;20438;-83
2022/10/21 07:56:31;;;;;;;0.00;0.00;;;12.40;99.90;;;;;;4986066;28;20454;-83
2022/10/21 07:59:01;;;;;;;0.00;0.00;;;12.40;99.90;;;;;;5000740;28;20451;-82
2022/10/21 08:01:29;;;;;;;0.00;0.00;;;12.30;99.90;;;;;;4991711;28;20463;-83
2022/10/21 08:03:58;;;;;;;0.00;0.00;;;12.30;99.90;;;;;;4985435;28;20582;-83
2022/10/21 08:06:27;;;;;;;0.00;0.00;;;12.30;99.90;;;;;;4992194;28;20447;-83
2022/10/21 08:08:56;;;;;;;0.00;0.00;;;12.20;99.90;;;;;;4990167;28;20510;-83
2022/10/21 08:11:26;;;;;;;0.00;0.00;;;12.20;99.90;;;;;;4989990;28;20482;-82
2022/10/21 08:13:56;;;;;;;0.00;0.00;;;12.30;99.90;;;;;;4988786;28;20444;-83
2022/10/21 08:16:25;;;;;;;0.00;0.00;;;12.30;99.90;;;;;;4993938;28;20853;-83
2022/10/21 08:18:55;;;;;;;0.00;0.00;;;12.40;99.90;;;;;;4990389;28;20502;-81
2022/10/21 08:21:23;;;;;;;0.00;0.00;;;12.40;99.90;;;;;;4990351;28;20472;-81
2022/10/21 08:23:50;;;;;;;0.00;0.00;;;12.50;99.90;;;;;;4989102;28;20498;-84
2022/10/21 08:26:19;;;;;;;0.00;0.00;;;12.50;99.90;;;;;;4987407;28;20476;-84
2022/10/21 08:28:47;;;;;;;0.00;0.00;;;12.50;99.90;;;;;;4988710;28;20585;-83
2022/10/21 08:31:18;;;;;;;0.00;0.00;;;12.60;99.90;;;;;;4988018;28;20527;-84
2022/10/21 08:33:46;;;;;;;0.00;0.00;;;12.60;99.90;;;;;;4991673;28;20460;-84
2022/10/21 08:36:16;;;;;;;0.00;0.00;;;12.70;99.90;;;;;;4988803;28;20454;-84
2022/10/21 08:38:44;;;;;;;0.00;0.00;;;12.80;99.90;;;;;;4990739;28;20444;-83
2022/10/21 08:41:36;;;;;;;0.00;0.00;;;12.90;99.90;;;;;;4990330;28;20491;-84
2022/10/21 08:44:06;;;;;;;0.00;0.00;;;13.10;99.90;;;;;;4992718;28;20459;-83
2022/10/21 08:46:40;;;;;;;0.00;0.00;;;13.20;99.90;;;;;;4997427;28;20431;-83
2022/10/21 08:49:15;;;;;;;0.00;0.00;;;13.30;99.90;;;;;;4993338;28;20541;-84
2022/10/21 08:51:49;;;;;;;0.00;0.00;;;13.30;99.90;;;;;;4990201;28;20458;-82
2022/10/21 08:54:21;;;;;;;0.00;0.00;;;13.30;99.90;;;;;;4985995;28;20471;-75
2022/10/21 08:57:41;;;;;;;;;;;;;;;;;;;;;
2022/10/21 09:04:22;;;;;;;;;;;;;;;;;;;;;
2022/10/21 09:07:28;;;;;;;0.00;0.00;;;13.60;99.90;;;;;;5037042;28;20546;-86
2022/10/21 09:10:20;;;;;;;0.00;0.00;;;13.70;99.90;;;;;;5046546;28;20472;-85
2022/10/21 09:25:12;;;;;;;0.00;0.00;;;13.80;99.90;;;;;;5006779;28;20489;-85
2022/10/21 09:27:54;;;;;;;0.00;0.00;;;13.90;99.90;;;;;;5009154;28;20454;-85
2022/10/21 09:30:36;;;;;;;0.00;0.00;;;13.90;99.90;;;;;;5004348;28;20569;-84
2022/10/21 09:33:42;;;;;;;;;;;;;;;;;;;;;
2022/10/21 09:36:35;;;;;;;0.00;0.00;;;14.10;99.90;;;;;;5042070;28;20450;-85
2022/10/21 09:42:41;;;;;;;0.00;0.00;;;14.30;99.90;;;;;;4970975;28;20479;-85
2022/10/21 09:45:54;;;;;;;0.00;0.00;;;14.30;99.90;;;;;;5027544;28;20552;-85
2022/10/21 09:48:54;;;;;;;0.00;0.00;;;14.40;99.90;;;;;;5028469;28;20456;-86
2022/10/21 09:56:05;;;;;;;0.00;0.00;;;14.20;99.90;;;;;;4867573;29;20467;-88
2022/10/21 09:58:54;;;;;;;0.00;0.00;;;14.00;99.90;;;;;;4900881;28;20565;-88
2022/10/21 10:01:43;;;;;;;0.00;0.00;;;13.90;99.90;;;;;;5009612;28;20501;-88
2022/10/21 10:08:21;;;;;;;0.00;0.00;;;13.70;99.90;;;;;;4909194;29;20974;-88
2022/10/21 10:10:49;;;;;;;0.00;0.00;;;13.70;99.90;;;;;;4962208;28;20466;-88
2022/10/21 10:13:19;;;;;;;0.00;0.00;;;13.60;99.90;;;;;;5013503;28;20984;-85
2022/10/21 10:15:48;;;;;;;0.00;0.00;;;13.60;99.90;;;;;;5024999;28;20494;-87
2022/10/21 10:18:22;;;;;;;0.00;0.00;;;13.70;99.90;;;;;;5052858;28;20446;-88
2022/10/21 10:21:12;;;;;;;0.00;0.00;;;13.70;99.90;;;;;;5057795;28;20451;-87
2022/10/21 10:24:31;;;;;;;0.00;0.00;;;13.80;99.90;;;;;;5057226;28;20548;-86
2022/10/21 10:27:48;;;;;;;0.00;0.00;;;13.90;99.90;;;;;;5057050;28;20440;-87
2022/10/21 10:30:47;;;;;;;;;;;;;;;;;;;;;
2022/10/21 10:33:23;;;;;;;0.00;0.00;;;14.20;99.90;;;;;;5043121;28;20456;-87
2022/10/21 10:35:54;;;;;;;0.00;0.00;;;14.40;99.90;;;;;;5056576;28;20440;-86
2022/10/21 10:41:49;;;;;;;0.00;0.00;;;14.60;99.90;;;;;;5046635;28;20450;-87
2022/10/21 10:44:55;;;;;;;0.00;0.00;;;14.80;99.90;;;;;;5060865;28;20949;-92
2022/10/21 10:59:05;;;;;;;0.00;0.00;;;15.20;99.90;;;;;;5039376;28;20506;-92
2022/10/21 11:02:13;;;;;;;0.00;0.00;;;15.20;99.90;;;;;;5049344;28;20488;-90
2022/10/21 11:28:28;;;;;;;;;;;;;;;;;;;;;
2022/10/21 15:13:59;;;;;;;0.00;0.00;;;16.60;99.90;;;;;;4814281;22;20482;-87
2022/10/21 15:16:29;;;;;;;0.00;0.00;;;16.60;99.90;;;;;;5038184;28;20469;-88
2022/10/21 15:18:58;;;;;;;0.00;0.00;;;16.50;99.90;;;;;;5044669;28;20466;-87
2022/10/21 15:28:19;;;;;;;0.00;0.00;;;16.50;99.90;;;;;;4931681;28;20828;-91
2022/10/21 15:31:02;;;;;;;0.00;0.00;;;16.40;99.90;;;;;;4953455;28;20489;-90
2022/10/21 15:33:44;;;;;;;0.00;0.00;;;16.40;99.90;;;;;;4944947;28;20455;-90
2022/10/21 15:36:30;;;;;;;0.00;0.00;;;16.40;99.90;;;;;;4957062;28;20478;-90
2022/10/21 15:38:58;;;;;;;0.00;0.00;;;16.40;99.90;;;;;;4954509;28;20497;-90
2022/10/21 15:41:29;;;;;;;0.00;0.00;;;16.30;99.90;;;;;;4964581;28;20461;-91
2022/10/21 15:45:04;;;;;;;;;;;;;;;;;;;;;
2022/10/21 15:48:00;;;;;;;0.00;0.00;;;16.30;99.90;;;;;;4892923;29;20451;-92
2022/10/21 15:51:41;;;;;;;0.00;0.00;;;16.30;99.90;;;;;;4927171;28;20465;-90
2022/10/21 17:02:28;;;;;;;0.00;0.00;;;15.50;99.90;;;;;;5038085;28;20473;-92
2022/10/21 17:05:09;;;;;;;0.00;0.00;;;15.60;99.90;;;;;;4982304;28;20456;-89
2022/10/21 17:08:00;;;;;;;0.00;0.00;;;15.70;99.90;;;;;;4979164;28;20481;-90
2022/10/21 17:10:34;;;;;;;0.00;0.00;;;15.70;99.90;;;;;;4957621;29;20493;-90
2022/10/21 17:13:17;;;;;;;0.00;0.00;;;15.80;99.90;;;;;;4955295;29;20596;-89
2022/10/21 17:15:47;;;;;;;0.00;0.00;;;15.90;99.90;;;;;;4952027;28;20456;-90
2022/10/21 17:18:19;;;;;;;0.00;0.00;;;15.90;99.90;;;;;;4952435;29;20467;-90
2022/10/21 17:20:49;;;;;;;0.00;0.00;;;15.90;99.90;;;;;;4953126;29;20489;-89
2022/10/21 17:23:33;;;;;;;0.00;0.00;;;15.90;99.90;;;;;;4955316;29;20450;-90
2022/10/21 17:26:06;;;;;;;0.00;0.00;;;15.90;99.90;;;;;;4950328;29;20568;-91
2022/10/21 17:28:41;;;;;;;0.00;0.00;;;15.90;99.90;;;;;;4959951;28;20467;-89
2022/10/21 17:34:27;;;;;;;0.00;0.00;;;16.00;99.90;;;;;;4885191;29;20468;-90
2022/10/21 17:37:12;;;;;;;0.00;0.00;;;16.10;99.90;;;;;;4936880;29;20453;-90
2022/10/21 17:39:54;;;;;;;0.00;0.00;;;16.00;99.90;;;;;;4925122;29;20566;-90
2022/10/21 17:42:26;;;;;;;0.00;0.00;;;16.10;99.90;;;;;;4940370;29;20973;-89
2022/10/21 17:44:57;;;;;;;0.00;0.00;;;16.00;99.90;;;;;;4933099;29;20477;-90
2022/10/21 17:51:07;;;;;;;0.00;0.00;;;16.00;99.90;;;;;;4929112;29;20437;-88
2022/10/21 17:53:35;;;;;;;0.00;0.00;;;16.00;99.90;;;;;;4941007;28;20458;-90
2022/10/21 17:56:06;;;;;;;0.00;0.00;;;16.00;99.90;;;;;;5010434;28;20451;-90
2022/10/21 17:58:35;;;;;;;0.00;0.00;;;15.90;99.90;;;;;;5006738;28;20464;-89
2022/10/21 18:01:08;;;;;;;0.00;0.00;;;16.00;99.90;;;;;;5005334;28;20834;-91
2022/10/21 18:03:39;;;;;;;0.00;0.00;;;16.00;99.90;;;;;;5011877;28;20441;-90
2022/10/21 18:06:11;;;;;;;0.00;0.00;;;16.00;99.90;;;;;;5017597;28;20467;-90
2022/10/21 18:08:42;;;;;;;0.00;0.00;;;16.00;99.90;;;;;;5014819;28;20453;-89
2022/10/21 18:11:13;;;;;;;0.00;0.00;;;16.00;99.90;;;;;;5026948;28;20466;-89
2022/10/21 18:13:41;;;;;;;0.00;0.00;;;16.10;99.90;;;;;;5006523;28;20479;-90
2022/10/21 18:16:11;;;;;;;0.00;0.00;;;16.10;99.90;;;;;;5009316;28;20818;-89
2022/10/21 18:18:40;;;;;;;0.00;0.00;;;16.10;99.90;;;;;;5003235;28;20900;-87
2022/10/21 18:21:13;;;;;;;0.00;0.00;;;16.20;99.90;;;;;;5005203;28;20467;-89
2022/10/21 18:23:44;;;;;;;0.00;0.00;;;16.20;99.90;;;;;;5000491;28;20468;-89
2022/10/21 18:26:19;;;;;;;0.00;0.00;;;16.20;99.90;;;;;;5011843;28;20522;-89
2022/10/21 18:28:55;;;;;;;0.00;0.00;;;16.20;99.90;;;;;;5012236;28;20478;-90
2022/10/21 18:31:31;;;;;;;0.00;0.00;;;16.10;99.90;;;;;;5002554;28;21312;-90
2022/10/21 18:34:08;;;;;;;0.00;0.00;;;16.10;99.90;;;;;;5000639;28;21216;-88
2022/10/21 18:36:39;;;;;;;0.00;0.00;;;16.10;99.90;;;;;;5013950;28;20455;-87
2022/10/21 18:39:17;;;;;;;0.00;0.00;;;16.10;99.90;;;;;;5005063;28;20565;-88
2022/10/21 18:41:48;;;;;;;0.00;0.00;;;16.10;99.90;;;;;;5008610;28;20447;-88
2022/10/21 18:44:29;;;;;;;0.00;0.00;;;16.10;99.90;;;;;;5002586;28;20509;-88
2022/10/21 18:47:05;;;;;;;0.00;0.00;;;16.10;99.90;;;;;;5008078;28;20485;-84
2022/10/21 18:49:36;;;;;;;0.00;0.00;;;16.10;99.90;;;;;;5019393;28;20478;-86
2022/10/21 18:52:10;;;;;;;0.00;0.00;;;16.10;99.90;;;;;;5031529;28;20460;-88
2022/10/21 18:54:40;;;;;;;0.00;0.00;;;16.10;99.90;;;;;;5017373;28;20487;-89
2022/10/21 19:04:46;;;;;;;0.00;0.00;;;16.10;99.90;;;;;;5023472;28;20439;-90
2022/10/21 19:08:00;;;;;;;0.00;0.00;;;16.20;99.90;;;;;;5011594;28;20496;-89
2022/10/21 19:10:36;;;;;;;0.00;0.00;;;16.20;99.90;;;;;;5000558;28;20563;-89
2022/10/21 19:13:26;;;;;;;0.00;0.00;;;16.20;99.90;;;;;;5011762;28;21000;-90
2022/10/21 19:15:55;;;;;;;0.00;0.00;;;16.20;99.90;;;;;;5029950;28;20460;-88
2022/10/21 19:18:31;;;;;;;0.00;0.00;;;16.30;99.90;;;;;;5006184;28;20479;-91
2022/10/21 19:21:13;;;;;;;0.00;0.00;;;16.30;99.90;;;;;;5018310;28;20506;-90
2022/10/21 19:27:38;;;;;;;0.00;0.00;;;16.40;99.90;;;;;;4957943;29;20471;-90
2022/10/21 19:30:12;;;;;;;0.00;0.00;;;16.40;99.90;;;;;;4978313;28;20992;-89
2022/10/21 19:33:13;;;;;;;0.00;0.00;;;16.40;99.90;;;;;;5005289;28;20473;-90
2022/10/21 19:35:53;;;;;;;0.00;0.00;;;16.50;99.90;;;;;;5009830;28;20451;-88
2022/10/21 19:42:30;;;;;;;0.00;0.00;;;16.50;99.90;;;;;;4970409;28;20449;-86
2022/10/21 19:45:02;;;;;;;0.00;0.00;;;16.50;99.90;;;;;;5014031;28;20944;-88
2022/10/21 19:47:32;;;;;;;0.00;0.00;;;16.50;99.90;;;;;;5000181;28;20842;-87
2022/10/21 19:52:58;;;;;;;0.00;0.00;;;16.60;99.90;;;;;;5003396;28;20459;-87
2022/10/21 19:55:27;;;;;;;0.00;0.00;;;16.50;99.90;;;;;;5008784;28;20446;-87
2022/10/21 19:57:56;;;;;;;0.00;0.00;;;16.50;99.90;;;;;;5011361;28;20452;-87
2022/10/21 20:00:24;;;;;;;0.00;0.00;;;16.40;99.90;;;;;;5002945;28;20489;-87
2022/10/21 20:03:17;;;;;;;0.00;0.00;;;16.50;99.90;;;;;;5008158;28;20468;-89
2022/10/21 20:05:45;;;;;;;0.00;0.00;;;16.40;99.90;;;;;;5003383;28;20485;-88
2022/10/21 20:08:13;;;;;;;0.00;0.00;;;16.40;99.90;;;;;;5013672;28;20494;-88
2022/10/21 20:10:44;;;;;;;0.00;0.00;;;16.40;99.90;;;;;;5018281;28;20823;-87
2022/10/21 20:13:16;;;;;;;0.00;0.00;;;16.40;99.90;;;;;;5003596;28;20460;-87